createdAt,value
2022-12-01T00:02:11.797Z,100.00
2022-12-01T00:05:14.972Z,100.00
2022-12-01T00:08:19.744Z,100.00
2022-12-01T00:11:22.675Z,100.00
2022-12-01T00:14:25.435Z,100.00
2022-12-01T00:17:30.021Z,100.00
2022-12-01T00:20:34.267Z,100.00
2022-12-01T00:23:37.223Z,100.00
2022-12-01T00:26:41.109Z,100.00
2022-12-01T00:29:44.163Z,100.00
2022-12-01T00:32:47.564Z,100.00
2022-12-01T00:35:50.502Z,100.00
2022-12-01T00:38:57.096Z,100.00
2022-12-01T00:42:00.034Z,100.00
2022-12-01T00:45:02.776Z,100.00
2022-12-01T00:48:05.885Z,100.00
2022-12-01T00:51:08.619Z,100.00
2022-12-01T00:54:11.587Z,100.00
2022-12-01T00:57:14.240Z,100.00
2022-12-01T01:00:17.628Z,100.00
2022-12-01T01:03:20.354Z,100.00
2022-12-01T01:06:23.506Z,100.00
2022-12-01T01:09:26.274Z,100.00
2022-12-01T01:12:29.200Z,100.00
2022-12-01T01:15:31.839Z,100.00
2022-12-01T01:18:34.803Z,100.00
2022-12-01T01:21:37.484Z,100.00
2022-12-01T01:24:40.396Z,100.00
2022-12-01T01:27:43.042Z,100.00
2022-12-01T01:30:46.635Z,100.00
2022-12-01T01:33:49.427Z,100.00
2022-12-01T01:36:52.383Z,100.00
2022-12-01T01:39:55.452Z,100.00
2022-12-01T01:42:58.359Z,100.00
2022-12-01T01:46:01.017Z,100.00
2022-12-01T01:49:09.867Z,100.00
2022-12-01T01:52:14.480Z,100.00
2022-12-01T01:55:17.899Z,100.00
2022-12-01T01:58:21.061Z,100.00
2022-12-01T02:01:24.165Z,100.00
2022-12-01T02:04:28.644Z,100.00
2022-12-01T02:07:31.327Z,100.00
2022-12-01T02:10:52.555Z,100.00
2022-12-01T02:14:25.840Z,100.00
2022-12-01T02:17:51.939Z,100.00
2022-12-01T02:21:23.535Z,100.00
2022-12-01T02:24:26.516Z,100.00
2022-12-01T02:27:49.370Z,100.00
2022-12-01T02:31:35.551Z,100.00
2022-12-01T02:34:43.514Z,100.00
2022-12-01T02:38:00.742Z,100.00
2022-12-01T02:41:16.947Z,100.00
2022-12-01T02:44:30.548Z,100.00
2022-12-01T02:47:34.397Z,100.00
2022-12-01T02:50:39.975Z,100.00
2022-12-01T02:53:42.703Z,100.00
2022-12-01T02:56:45.720Z,100.00
2022-12-01T02:59:53.011Z,100.00
2022-12-01T03:03:21.979Z,100.00
2022-12-01T03:06:37.651Z,100.00
2022-12-01T03:10:05.672Z,100.00
2022-12-01T03:13:20.211Z,100.00
2022-12-01T03:16:55.127Z,100.00
2022-12-01T03:20:08.787Z,100.00
2022-12-01T03:23:16.510Z,100.00
2022-12-01T03:26:23.049Z,100.00
2022-12-01T03:29:41.401Z,100.00
2022-12-01T03:32:49.530Z,100.00
2022-12-01T03:36:05.149Z,100.00
2022-12-01T03:39:15.478Z,100.00
2022-12-01T03:42:24.576Z,100.00
2022-12-01T03:45:34.719Z,100.00
2022-12-01T03:48:39.856Z,100.00
2022-12-01T03:52:04.138Z,100.00
2022-12-01T03:55:30.718Z,100.00
2022-12-01T03:58:45.277Z,100.00
2022-12-01T04:01:51.706Z,100.00
2022-12-01T04:04:54.783Z,100.00
2022-12-01T04:07:57.432Z,100.00
2022-12-01T04:11:00.398Z,100.00
2022-12-01T04:14:02.995Z,100.00
2022-12-01T04:17:05.985Z,100.00
2022-12-01T04:20:09.334Z,100.00
2022-12-01T04:23:32.520Z,100.00
2022-12-01T04:26:37.337Z,100.00
2022-12-01T04:29:40.808Z,100.00
2022-12-01T04:32:43.841Z,100.00
2022-12-01T04:35:46.695Z,100.00
2022-12-01T04:38:49.298Z,100.00
2022-12-01T04:41:52.307Z,100.00
2022-12-01T04:44:54.874Z,100.00
2022-12-01T04:47:57.791Z,100.00
2022-12-01T04:51:00.447Z,100.00
2022-12-01T04:54:03.575Z,100.00
2022-12-01T04:57:06.187Z,100.00
2022-12-01T05:00:13.384Z,100.00
2022-12-01T05:03:16.067Z,100.00
2022-12-01T05:06:22.652Z,100.00
2022-12-01T05:09:25.305Z,100.00
2022-12-01T05:12:28.274Z,100.00
2022-12-01T05:15:31.377Z,100.00
2022-12-01T05:18:34.629Z,100.00
2022-12-01T05:21:38.491Z,100.00
2022-12-01T05:24:42.693Z,100.00
2022-12-01T05:27:45.365Z,99.91
2022-12-01T05:30:48.797Z,100.00
2022-12-01T05:33:51.360Z,100.00
2022-12-01T05:36:54.286Z,100.00
2022-12-01T05:39:57.348Z,100.00
2022-12-01T05:43:00.410Z,99.61
2022-12-01T05:46:04.041Z,99.95
2022-12-01T05:49:07.122Z,100.00
2022-12-01T05:52:09.852Z,100.00
2022-12-01T05:55:12.820Z,99.72
2022-12-01T05:58:15.447Z,99.68
2022-12-01T06:01:18.645Z,99.46
2022-12-01T06:04:22.585Z,98.75
2022-12-01T06:07:26.078Z,98.82
2022-12-01T06:10:29.501Z,98.40
2022-12-01T06:13:32.120Z,98.22
2022-12-01T06:16:35.524Z,97.66
2022-12-01T06:19:38.427Z,98.81
2022-12-01T06:22:41.555Z,96.88
2022-12-01T06:25:44.183Z,98.13
2022-12-01T06:28:47.093Z,96.98
2022-12-01T06:31:49.750Z,97.10
2022-12-01T06:34:52.715Z,97.02
2022-12-01T06:37:55.586Z,95.69
2022-12-01T06:40:58.468Z,93.78
2022-12-01T06:44:02.130Z,95.57
2022-12-01T06:47:05.168Z,96.21
2022-12-01T06:50:10.021Z,94.46
2022-12-01T06:53:13.480Z,92.46
2022-12-01T06:56:17.787Z,92.57
2022-12-01T06:59:21.122Z,92.77
2022-12-01T07:02:24.274Z,93.90
2022-12-01T07:05:27.326Z,95.30
2022-12-01T07:08:31.231Z,96.66
2022-12-01T07:11:36.440Z,96.37
2022-12-01T07:14:40.040Z,98.21
2022-12-01T07:17:42.902Z,97.89
2022-12-01T07:20:45.453Z,97.51
2022-12-01T07:23:48.417Z,95.54
2022-12-01T07:26:51.015Z,95.44
2022-12-01T07:29:54.147Z,95.90
2022-12-01T07:32:56.791Z,96.56
2022-12-01T07:35:59.716Z,96.66
2022-12-01T07:39:09.103Z,96.02
2022-12-01T07:42:12.050Z,96.53
2022-12-01T07:45:14.682Z,93.48
2022-12-01T07:48:17.648Z,93.97
2022-12-01T07:51:22.495Z,92.54
2022-12-01T07:54:26.298Z,93.79
2022-12-01T07:57:28.806Z,94.14
2022-12-01T08:00:31.887Z,92.40
2022-12-01T08:03:35.658Z,92.88
2022-12-01T08:06:38.345Z,91.90
2022-12-01T08:09:41.427Z,91.12
2022-12-01T08:12:46.680Z,91.55
2022-12-01T08:15:49.610Z,92.60
2022-12-01T08:18:53.474Z,92.53
2022-12-01T08:21:56.871Z,93.08
2022-12-01T08:24:59.908Z,91.14
2022-12-01T08:28:03.270Z,91.24
2022-12-01T08:31:24.141Z,90.14
2022-12-01T08:34:27.470Z,88.75
2022-12-01T08:37:30.115Z,90.95
2022-12-01T08:40:33.261Z,91.17
2022-12-01T08:44:00.351Z,90.35
2022-12-01T08:47:07.212Z,90.58
2022-12-01T08:50:11.137Z,90.61
2022-12-01T08:53:14.179Z,89.53
2022-12-01T08:56:23.035Z,90.88
2022-12-01T08:59:26.415Z,91.25
2022-12-01T09:02:29.727Z,90.63
2022-12-01T09:05:32.812Z,89.16
2022-12-01T09:08:36.509Z,90.70
2022-12-01T09:11:40.970Z,91.01
2022-12-01T09:14:49.773Z,89.50
2022-12-01T09:17:52.765Z,90.37
2022-12-01T09:20:57.606Z,91.42
2022-12-01T09:24:01.946Z,88.42
2022-12-01T09:27:05.383Z,89.66
2022-12-01T09:30:08.867Z,89.67
2022-12-01T09:33:11.837Z,86.21
2022-12-01T09:36:14.799Z,84.58
2022-12-01T09:39:19.923Z,85.21
2022-12-01T09:42:32.227Z,84.63
2022-12-01T09:45:44.270Z,87.49
2022-12-01T09:48:49.861Z,85.74
2022-12-01T09:51:54.417Z,86.66
2022-12-01T09:54:59.447Z,83.54
2022-12-01T09:58:04.473Z,82.13
2022-12-01T10:01:15.888Z,83.31
2022-12-01T10:04:40.054Z,83.92
2022-12-01T10:07:54.068Z,82.60
2022-12-01T10:11:13.438Z,81.40
2022-12-01T10:14:20.747Z,83.83
2022-12-01T10:18:11.464Z,83.41
2022-12-01T10:21:20.176Z,83.50
2022-12-01T10:24:31.952Z,82.09
2022-12-01T10:27:51.166Z,82.48
2022-12-01T10:31:03.575Z,82.57
2022-12-01T10:34:21.577Z,82.53
2022-12-01T10:37:30.358Z,82.88
2022-12-01T10:40:36.209Z,82.21
2022-12-01T10:43:47.494Z,82.05
2022-12-01T10:46:56.244Z,81.21
2022-12-01T10:49:59.332Z,79.34
2022-12-01T10:53:03.575Z,80.70
2022-12-01T10:56:12.572Z,81.55
2022-12-01T10:59:30.650Z,80.48
2022-12-01T11:02:34.905Z,80.31
2022-12-01T11:05:42.404Z,79.66
2022-12-01T11:09:07.303Z,78.42
2022-12-01T11:12:16.663Z,77.05
2022-12-01T11:15:24.418Z,77.84
2022-12-01T11:18:34.669Z,77.67
2022-12-01T11:21:46.883Z,77.58
2022-12-01T11:24:52.575Z,75.91
2022-12-01T11:28:01.438Z,77.83
2022-12-01T11:31:08.283Z,75.78
2022-12-01T11:34:34.605Z,76.09
2022-12-01T11:37:54.793Z,76.61
2022-12-01T11:41:03.565Z,74.03
2022-12-01T11:44:35.645Z,76.82
2022-12-01T11:48:10.411Z,76.05
2022-12-01T11:51:39.221Z,76.96
2022-12-01T11:54:56.259Z,76.26
2022-12-01T11:58:03.032Z,75.38
2022-12-01T12:01:22.295Z,75.03
2022-12-01T12:04:31.125Z,73.63
2022-12-01T12:07:46.059Z,74.09
2022-12-01T12:11:04.081Z,74.40
2022-12-01T12:14:28.538Z,75.81
2022-12-01T12:17:46.956Z,74.45
2022-12-01T12:21:26.543Z,74.85
2022-12-01T12:24:49.112Z,73.60
2022-12-01T12:28:13.554Z,75.81
2022-12-01T12:31:35.268Z,75.59
2022-12-01T12:34:56.498Z,76.50
2022-12-01T12:38:24.464Z,76.16
2022-12-01T12:41:36.339Z,76.79
2022-12-01T12:45:11.533Z,76.22
2022-12-01T12:52:16.787Z,75.83
2022-12-01T12:55:30.737Z,78.69
2022-12-01T12:58:49.625Z,78.01
2022-12-01T13:02:06.701Z,79.44
2022-12-01T13:05:22.906Z,77.69
2022-12-01T13:08:40.224Z,76.54
2022-12-01T13:11:59.394Z,75.97
2022-12-01T13:15:23.024Z,73.28
2022-12-01T13:18:34.795Z,74.89
2022-12-01T13:21:43.899Z,75.89
2022-12-01T13:24:46.939Z,76.99
2022-12-01T13:27:51.403Z,78.47
2022-12-01T13:31:13.562Z,78.42
2022-12-01T13:34:33.512Z,78.99
2022-12-01T13:37:38.671Z,78.73
2022-12-01T13:40:41.345Z,79.01
2022-12-01T13:44:20.237Z,78.41
2022-12-01T13:47:22.909Z,78.62
2022-12-01T13:50:44.114Z,78.34
2022-12-01T13:53:56.991Z,79.63
2022-12-01T13:57:10.797Z,80.12
2022-12-01T14:00:29.068Z,79.97
2022-12-01T14:03:38.359Z,80.64
2022-12-01T14:06:49.385Z,80.13
2022-12-01T14:09:57.766Z,80.30
2022-12-01T14:13:04.148Z,81.13
2022-12-01T14:16:08.632Z,80.80
2022-12-01T14:19:30.950Z,80.96
2022-12-01T14:22:33.898Z,81.94
2022-12-01T14:25:37.636Z,83.74
2022-12-01T14:28:56.055Z,84.76
2022-12-01T14:32:01.392Z,84.89
2022-12-01T14:35:10.460Z,85.08
2022-12-01T14:38:13.503Z,86.31
2022-12-01T14:41:32.291Z,86.17
2022-12-01T14:44:36.540Z,86.52
2022-12-01T14:47:47.759Z,86.45
2022-12-01T14:50:55.723Z,85.68
2022-12-01T14:54:02.566Z,85.80
2022-12-01T14:57:11.108Z,86.40
2022-12-01T15:00:23.055Z,86.45
2022-12-01T15:03:32.252Z,86.13
2022-12-01T15:06:37.660Z,86.01
2022-12-01T15:09:59.879Z,85.96
2022-12-01T15:13:19.945Z,86.61
2022-12-01T15:16:25.276Z,86.90
2022-12-01T15:19:33.440Z,87.06
2022-12-01T15:22:36.125Z,87.06
2022-12-01T15:25:45.316Z,87.43
2022-12-01T15:28:48.034Z,87.28
2022-12-01T15:31:54.735Z,87.62
2022-12-01T15:35:02.087Z,87.63
2022-12-01T15:38:05.248Z,87.67
2022-12-01T15:41:31.997Z,88.12
2022-12-01T15:44:36.628Z,88.89
2022-12-01T15:47:45.195Z,89.69
2022-12-01T15:51:01.198Z,89.05
2022-12-01T15:54:04.088Z,90.18
2022-12-01T15:57:07.793Z,90.22
2022-12-01T16:00:19.961Z,90.70
2022-12-01T16:03:22.922Z,90.69
2022-12-01T16:06:30.696Z,91.27
2022-12-01T16:09:33.970Z,91.92
2022-12-01T16:12:37.152Z,91.71
2022-12-01T16:15:44.105Z,92.39
2022-12-01T16:18:58.742Z,92.10
2022-12-01T16:22:10.835Z,91.89
2022-12-01T16:25:30.096Z,92.69
2022-12-01T16:28:37.754Z,93.55
2022-12-01T16:31:58.609Z,94.20
2022-12-01T16:35:05.040Z,94.90
2022-12-01T16:38:16.241Z,95.21
2022-12-01T16:41:39.161Z,94.47
2022-12-01T16:44:43.662Z,94.02
2022-12-01T16:47:48.684Z,93.94
2022-12-01T16:50:53.273Z,94.40
2022-12-01T16:53:56.397Z,94.89
2022-12-01T16:56:59.038Z,95.24
2022-12-01T17:00:02.257Z,95.19
2022-12-01T17:03:05.709Z,95.35
2022-12-01T17:06:15.166Z,95.46
2022-12-01T17:09:19.454Z,96.02
2022-12-01T17:12:26.396Z,96.11
2022-12-01T17:15:29.017Z,95.46
2022-12-01T17:18:34.490Z,95.25
2022-12-01T17:21:37.379Z,95.17
2022-12-01T17:24:42.738Z,95.55
2022-12-01T17:27:45.880Z,95.62
2022-12-01T17:30:49.877Z,95.72
2022-12-01T17:33:52.722Z,96.10
2022-12-01T17:36:55.753Z,95.43
2022-12-01T17:39:59.414Z,95.86
2022-12-01T17:43:02.506Z,96.11
2022-12-01T17:46:07.149Z,96.10
2022-12-01T17:49:10.733Z,96.03
2022-12-01T17:52:13.504Z,96.40
2022-12-01T17:55:16.755Z,95.97
2022-12-01T17:58:21.649Z,95.72
2022-12-01T18:01:29.939Z,95.50
2022-12-01T18:04:33.857Z,95.12
2022-12-01T18:07:36.488Z,95.43
2022-12-01T18:10:39.667Z,95.01
2022-12-01T18:13:48.324Z,95.52
2022-12-01T18:16:52.407Z,95.76
2022-12-01T18:19:55.104Z,95.93
2022-12-01T18:22:58.049Z,96.34
2022-12-01T18:26:08.636Z,96.70
2022-12-01T18:29:26.036Z,96.45
2022-12-01T18:32:29.108Z,96.26
2022-12-01T18:35:32.510Z,96.27
2022-12-01T18:38:35.292Z,96.26
2022-12-01T18:41:38.965Z,96.38
2022-12-01T18:44:42.487Z,96.57
2022-12-01T18:47:45.868Z,96.63
2022-12-01T18:50:50.448Z,96.90
2022-12-01T18:53:57.849Z,96.64
2022-12-01T18:57:00.863Z,96.69
2022-12-01T19:00:10.044Z,96.80
2022-12-01T19:03:12.980Z,96.74
2022-12-01T19:06:16.852Z,96.78
2022-12-01T19:09:22.276Z,96.52
2022-12-01T19:12:25.485Z,96.60
2022-12-01T19:15:29.639Z,96.16
2022-12-01T19:18:33.239Z,95.91
2022-12-01T19:21:36.622Z,95.80
2022-12-01T19:24:39.966Z,95.85
2022-12-01T19:27:42.834Z,96.10
2022-12-01T19:30:48.295Z,96.22
2022-12-01T19:33:53.701Z,96.56
2022-12-01T19:36:56.938Z,97.05
2022-12-01T19:39:59.838Z,96.65
2022-12-01T19:43:03.423Z,96.78
2022-12-01T19:46:08.652Z,96.65
2022-12-01T19:49:11.934Z,96.90
2022-12-01T19:52:14.635Z,96.86
2022-12-01T19:55:17.932Z,96.82
2022-12-01T19:58:20.878Z,96.13
2022-12-01T20:01:25.207Z,95.91
2022-12-01T20:04:28.653Z,96.43
2022-12-01T20:07:31.253Z,96.26
2022-12-01T20:10:34.539Z,95.81
2022-12-01T20:13:39.934Z,95.79
2022-12-01T20:16:43.379Z,95.78
2022-12-01T20:19:46.962Z,95.46
2022-12-01T20:22:50.407Z,95.51
2022-12-01T20:25:53.459Z,95.94
2022-12-01T20:29:00.640Z,95.27
2022-12-01T20:32:04.353Z,95.57
2022-12-01T20:35:08.291Z,95.62
2022-12-01T20:38:11.729Z,95.65
2022-12-01T20:41:16.934Z,95.72
2022-12-01T20:44:19.894Z,95.74
2022-12-01T20:47:22.814Z,95.70
2022-12-01T20:50:25.879Z,95.95
2022-12-01T20:53:29.379Z,96.32
2022-12-01T20:56:32.747Z,96.77
2022-12-01T20:59:36.758Z,95.94
2022-12-01T21:02:40.256Z,95.56
2022-12-01T21:05:45.814Z,96.05
2022-12-01T21:08:51.175Z,95.98
2022-12-01T21:12:32.302Z,96.50
2022-12-01T21:15:46.767Z,97.37
2022-12-01T21:18:55.862Z,96.85
2022-12-01T21:21:58.962Z,96.61
2022-12-01T21:25:15.842Z,96.94
2022-12-01T21:28:22.392Z,97.28
2022-12-01T21:31:26.084Z,97.07
2022-12-01T21:34:29.322Z,97.38
2022-12-01T21:37:32.312Z,96.72
2022-12-01T21:40:37.342Z,97.13
2022-12-01T21:43:40.203Z,96.53
2022-12-01T21:46:43.516Z,97.13
2022-12-01T21:49:49.069Z,97.67
2022-12-01T21:52:51.641Z,97.53
2022-12-01T21:55:56.159Z,97.61
2022-12-01T21:59:19.558Z,98.01
2022-12-01T22:02:37.397Z,98.17
2022-12-01T22:06:00.940Z,98.00
2022-12-01T22:09:17.638Z,98.17
2022-12-01T22:12:29.105Z,98.50
2022-12-01T22:15:41.659Z,98.58
2022-12-01T22:18:49.278Z,98.51
2022-12-01T22:22:03.061Z,98.67
2022-12-01T22:25:25.445Z,98.64
2022-12-01T22:28:28.788Z,98.71
2022-12-01T22:31:31.779Z,98.48
2022-12-01T22:34:34.666Z,98.50
2022-12-01T22:37:44.674Z,98.60
2022-12-01T22:41:14.545Z,98.57
2022-12-01T22:44:17.905Z,98.98
2022-12-01T22:47:20.524Z,98.80
2022-12-01T22:50:30.678Z,98.40
2022-12-01T22:53:33.252Z,98.57
2022-12-01T22:56:49.881Z,97.93
2022-12-01T22:59:53.225Z,98.03
2022-12-01T23:02:56.563Z,97.09
2022-12-01T23:05:59.209Z,96.65
2022-12-01T23:09:02.068Z,96.99
2022-12-01T23:12:21.675Z,96.34
2022-12-01T23:15:45.373Z,96.85
2022-12-01T23:18:48.118Z,97.04
2022-12-01T23:21:52.647Z,96.25
2022-12-01T23:24:55.248Z,96.85
2022-12-01T23:28:00.921Z,97.17
2022-12-01T23:31:03.684Z,96.44
2022-12-01T23:34:13.633Z,96.74
2022-12-01T23:37:33.207Z,96.63
2022-12-01T23:40:36.392Z,97.19
2022-12-01T23:43:41.533Z,97.57
2022-12-01T23:46:44.519Z,98.04
2022-12-01T23:49:48.248Z,97.68
2022-12-01T23:52:51.882Z,97.71
2022-12-01T23:55:56.129Z,97.78
2022-12-01T23:59:01.307Z,97.52
